Aviation Digital Data Service (ADDS)

Output produced by METARs form (2343 UTC 23 May 2022)
found at http://www.aviationweather.gov/metar/data/
 
TAF SGAS 232235Z 2400/2500 VRB04KT CAVOK TX28/2419Z TN15/2410Z 
     PROB30 2407/2410 7000 NSC 
     BECMG 2412/2415 05007KT 9999 SCT027 
     BECMG 2417/2420 02012KT 9999 BKN033
       
TAF SGES 232235Z 2400/2500 VRB04KT CAVOK TX27/2419Z TN13/2410Z 
     PROB30 2408/2411 6000 NSC 
     BECMG 2415/2418 03012KT 9999 SCT027
       
TAF SGCO 232235Z 2400/2500 09005KT CAVOK TX30/2418Z TN18/2410Z 
     BECMG 2415/2418 02010G20KT 9999 BKN030